Date,TemperatureHighF,TemperatureAvgF,TemperatureLowF,DewpointHighF,DewpointAvgF,DewpointLowF,HumidityHigh,HumidityAvg,HumidityLow,PressureMaxIn,PressureMinIn,WindSpeedMaxMPH,WindSpeedAvgMPH,GustSpeedMaxMPH,PrecipitationSumIn
2013-1-1,37.4,34.4,27.1,37.0,33.1,24.0,98,94,88,30.17,29.98,9,4,12,0.01
2013-1-2,34.5,25.8,19.8,25.0,21.0,17.0,93,82,59,30.26,30.16,7,1,10,0.00
2013-1-3,40.7,27.6,17.0,30.0,22.9,16.0,95,84,64,30.39,30.21,8,1,10,0.00
2013-1-4,45.1,30.0,19.7,32.0,24.7,18.0,96,83,55,30.44,30.35,7,1,11,0.00
2013-1-5,43.5,34.1,21.9,33.0,28.2,21.0,96,80,62,30.36,30.20,5,1,9,0.00
2013-1-6,47.1,35.2,22.5,37.0,31.0,21.0,96,85,62,30.36,30.14,10,2,13,0.00
2013-1-7,45.2,29.5,19.2,31.0,24.4,18.0,95,83,56,30.44,30.20,5,1,7,0.00
2013-1-8,56.2,38.8,22.7,39.0,32.0,21.0,95,79,49,30.27,30.16,6,1,10,0.00
2013-1-9,54.2,49.3,42.8,50.0,46.0,37.0,97,88,80,30.37,30.20,7,2,13,0.06
2013-1-10,65.0,56.4,46.3,62.0,55.0,45.0,99,95,87,30.36,29.81,8,3,15,0.52
2013-1-11,65.5,59.2,52.4,62.0,53.7,48.0,97,83,61,29.96,29.83,11,3,17,0.11
2013-1-12,69.5,65.7,59.1,67.0,63.8,57.0,99,93,86,29.92,29.66,12,3,22,0.07
2013-1-13,69.3,39.9,27.2,65.0,38.1,24.0,97,93,80,30.24,29.65,10,4,16,0.64
2013-1-14,29.7,26.7,23.8,24.0,22.9,21.0,92,85,79,30.39,30.25,12,5,16,0.00
2013-1-15,30.8,27.8,24.0,29.0,25.4,22.0,95,90,83,30.28,30.02,11,5,14,0.00
2013-1-16,32.1,30.5,29.2,31.0,28.4,28.0,95,91,86,30.13,30.01,5,1,8,0.01
2013-1-17,47.0,34.7,25.6,37.0,30.3,24.0,95,84,68,30.43,30.08,11,3,20,0.87
2013-1-18,48.2,35.1,20.9,32.0,26.5,20.0,95,74,46,30.54,30.28,6,1,11,0.56
2013-1-19,57.0,45.6,35.6,35.0,31.8,27.0,76,60,42,30.27,30.05,16,4,20,0.23
2013-1-20,47.2,39.1,27.6,35.0,28.3,20.0,93,67,37,30.24,30.09,7,2,14,0.00
2013-1-21,36.0,27.9,22.0,22.0,17.9,14.0,84,67,46,30.30,30.17,8,2,12,0.00
2013-1-22,27.3,23.4,18.2,13.0,6.8,2.0,64,50,37,30.43,30.30,7,2,12,0.00
2013-1-23,49.0,32.2,18.5,33.0,22.9,9.0,93,70,50,30.35,30.11,8,1,10,0.00
2013-1-24,34.8,29.9,23.4,32.0,17.4,12.0,92,61,46,30.48,30.20,10,4,17,0.00
2013-1-25,35.0,30.1,23.9,32.0,25.2,13.0,96,83,47,30.21,30.06,7,1,11,0.13
2013-1-26,46.4,34.2,23.4,33.0,27.2,22.0,97,78,50,30.32,30.21,5,1,9,0.01
2013-1-27,50.1,40.4,28.2,45.0,37.4,25.0,96,89,80,30.29,30.09,7,1,10,0.08
2013-1-28,62.3,56.4,49.5,58.0,52.1,43.0,94,86,68,30.11,30.00,8,3,17,0.16
2013-1-29,71.0,63.5,57.9,64.0,59.6,55.0,93,87,77,30.00,29.39,14,5,27,0.04
2013-1-30,58.9,47.4,33.2,54.0,42.8,24.0,98,84,69,29.91,29.40,12,4,22,1.03
2013-1-31,44.2,34.5,22.5,33.0,26.1,18.0,94,72,54,30.27,29.90,8,3,18,0.37
2013-2-1,26.9,20.6,12.2,21.0,13.4,7.0,87,74,61,30.50,30.27,8,1,11,0.01
2013-2-2,40.9,33.3,23.3,35.0,26.9,18.0,92,78,59,30.29,30.06,7,2,13,0.01
2013-2-3,45.2,36.5,27.6,35.0,29.4,23.0,94,77,52,30.13,29.98,9,2,14,0.01
2013-2-4,50.4,40.2,27.5,42.0,34.1,24.0,92,80,50,30.07,29.86,7,2,16,0.06
2013-2-5,56.8,45.0,35.0,44.0,40.3,34.0,96,85,52,30.04,29.88,6,1,12,0.00
2013-2-6,53.4,42.3,31.7,37.0,33.9,30.0,97,75,45,30.20,30.04,6,1,10,0.01
2013-2-7,65.8,52.3,38.3,53.0,44.0,33.0,97,74,57,30.05,29.81,9,1,12,0.32
2013-2-8,52.1,40.7,34.2,51.0,36.4,29.0,96,84,74,30.31,29.85,12,6,19,0.08
2013-2-9,50.5,40.0,31.9,36.0,31.7,28.0,86,73,50,30.33,30.04,9,2,13,0.00
2013-2-10,57.3,52.4,46.5,55.0,46.0,35.0,95,80,58,30.03,29.68,11,4,23,0.52
2013-2-11,56.2,44.8,31.6,55.0,35.2,30.0,94,71,46,30.11,29.83,8,2,14,0.00
2013-2-12,47.4,34.6,27.1,35.0,30.5,26.0,97,86,57,30.11,30.04,5,1,9,0.00
2013-2-19,44.0,36.4,28.0,26.0,21.9,17.0,76,57,44,30.25,30.10,10,3,20,0.00
2013-2-20,33.2,27.9,21.7,20.0,17.6,15.0,82,66,53,30.36,30.23,9,3,11,0.00
2013-2-21,39.1,32.7,26.1,38.0,27.0,20.0,97,80,56,30.26,29.82,14,4,23,0.34
2013-2-22,45.1,40.3,33.4,42.0,37.7,31.0,98,90,80,30.04,29.81,9,3,16,0.17
2013-2-23,45.5,34.8,27.2,33.0,28.5,26.0,94,79,56,30.04,29.93,7,2,10,0.31
2013-2-24,52.4,38.0,23.9,32.0,27.4,22.0,94,69,42,30.13,29.97,7,2,12,0.00
2013-2-25,59.1,48.7,33.8,47.0,33.2,27.0,90,57,36,30.00,29.41,13,5,18,0.12
2013-2-26,49.7,45.1,37.9,49.0,42.4,36.0,97,90,78,29.67,29.31,13,5,22,0.30
2013-2-27,39.0,37.7,34.6,36.0,33.4,32.0,93,84,77,29.88,29.68,11,4,15,0.01
2013-2-28,38.4,35.3,33.0,33.0,31.1,28.0,94,84,76,30.06,29.87,9,2,13,0.02
2013-3-1,37.6,33.6,31.5,36.0,32.2,30.0,96,94,90,30.09,30.02,7,2,11,0.11
2013-3-2,32.8,30.8,28.3,30.0,27.5,24.0,95,88,78,30.19,30.07,10,3,15,0.04
2013-3-3,41.7,32.8,22.2,32.0,23.6,19.0,89,70,45,30.19,30.07,7,2,12,0.00
2013-3-4,58.8,46.5,35.3,45.0,32.7,26.0,92,60,42,30.09,29.75,8,2,14,0.09
2013-3-5,50.4,41.7,33.0,50.0,38.0,23.0,98,87,62,30.05,29.72,12,4,24,0.40
2013-3-6,41.4,35.3,28.5,31.0,27.9,25.0,89,75,62,30.30,30.05,12,4,20,0.00
2013-3-7,44.4,34.3,25.6,33.0,28.6,24.0,94,80,61,30.39,30.29,7,2,10,0.00
2013-3-8,55.7,41.3,27.2,35.0,30.4,25.0,93,68,36,30.41,30.22,10,2,12,0.00
2013-3-9,66.2,52.9,39.8,41.0,35.3,31.0,77,53,33,30.22,29.91,8,2,13,0.00
2013-3-10,68.1,58.8,50.5,55.0,45.9,39.0,98,64,45,29.93,29.69,14,5,25,1.13
2013-3-11,52.7,42.7,34.1,52.0,38.6,31.0,97,85,74,29.99,29.72,9,3,20,0.01
2013-3-12,51.2,39.9,26.3,36.0,30.5,25.0,97,72,44,30.14,29.98,11,2,13,0.00
2013-3-13,43.5,36.8,27.0,30.0,24.9,22.0,82,63,45,30.39,30.14,10,3,18,0.00
2013-3-14,46.2,36.4,21.9,31.0,25.5,20.0,94,67,44,30.41,30.13,6,2,11,0.00
2013-3-15,75.6,56.5,34.3,52.0,41.9,26.0,86,60,41,30.12,29.77,12,4,21,0.00
2013-3-16,72.2,61.9,47.6,56.0,49.3,42.0,80,64,53,29.91,29.73,15,6,22,0.00
2013-3-17,47.4,43.7,41.9,45.0,41.6,39.0,97,92,80,29.97,29.69,11,4,15,0.36
2013-3-18,54.2,46.1,34.0,51.0,44.2,33.0,98,93,84,29.98,29.62,11,2,22,1.00
2013-3-19,52.4,41.9,31.9,36.0,27.8,15.0,98,63,24,30.18,29.99,10,2,14,0.00
2013-3-20,47.2,36.3,27.6,36.0,27.7,19.0,92,72,52,30.19,30.05,10,3,18,0.00
2013-3-21,41.3,31.6,19.1,26.0,19.6,16.0,92,64,41,30.10,29.95,9,2,13,0.00
2013-3-22,45.0,39.5,34.3,29.0,25.6,22.0,65,58,51,30.02,29.92,8,2,10,0.00
2013-3-23,55.5,47.0,40.5,45.0,37.3,28.0,95,70,56,29.97,29.65,13,4,15,0.47
2013-3-24,48.3,41.5,33.8,46.0,39.6,30.0,98,93,84,29.76,29.42,13,5,22,0.32
2013-3-25,38.2,33.9,31.5,32.0,29.3,27.0,95,83,74,30.15,29.76,12,5,22,0.01
2013-3-26,41.7,34.2,28.8,33.0,29.5,27.0,95,84,62,30.34,30.15,8,2,11,0.04
2013-3-27,50.2,37.0,23.1,34.0,28.1,22.0,96,73,45,30.40,30.28,8,1,11,0.00
2013-3-28,59.5,46.7,36.1,44.0,36.0,32.0,91,69,42,30.35,30.22,6,1,9,0.00
2013-3-29,55.1,48.9,41.5,48.0,43.8,38.0,95,83,64,30.25,30.14,6,2,11,0.35
2013-3-30,53.3,47.1,37.2,51.0,45.7,37.0,99,95,83,30.17,29.89,5,1,8,0.31
2013-3-31,61.0,53.0,42.2,53.0,50.1,41.0,99,90,68,29.92,29.84,6,1,11,0.05
2013-4-1,57.9,46.9,38.2,45.0,38.0,30.0,99,73,51,30.15,29.88,11,3,16,0.00
2013-4-2,45.6,42.2,37.1,32.0,26.7,21.0,73,55,39,30.27,30.15,7,2,12,0.00
2013-4-3,53.6,44.8,34.1,29.0,24.9,22.0,69,47,32,30.30,30.15,18,5,21,0.00
2013-4-4,47.5,44.4,40.3,45.0,36.2,24.0,96,75,42,30.15,29.98,8,2,13,0.18
2013-4-5,67.3,50.6,31.5,44.0,38.3,31.0,99,68,34,30.11,30.01,9,2,13,0.00
2013-4-6,73.9,58.2,39.3,48.0,41.8,37.0,93,60,32,30.07,29.86,12,3,20,0.00
2013-4-7,72.1,64.3,55.7,58.0,52.8,44.0,87,67,53,29.97,29.89,8,3,16,0.00
2013-4-8,76.3,67.6,59.9,59.0,55.7,52.0,82,66,53,29.91,29.82,14,4,23,0.00
2013-4-9,77.1,69.4,57.9,67.0,62.2,54.0,89,78,68,29.98,29.85,13,3,18,0.00
2013-4-10,82.3,75.0,68.8,68.0,64.8,62.0,86,71,58,29.91,29.66,11,4,20,0.00
2013-4-11,72.9,58.4,45.4,65.0,57.3,44.0,98,96,71,29.70,29.56,7,2,14,2.72
2013-4-12,61.7,48.9,35.8,46.0,40.5,35.0,98,75,54,29.99,29.71,11,3,19,0.00
2013-4-13,65.4,51.1,33.8,48.0,40.5,33.0,96,70,43,30.08,29.93,8,1,11,0.00
2013-4-14,73.3,59.0,45.5,54.0,48.2,42.0,89,70,45,29.93,29.75,12,3,21,0.00
2013-4-15,80.3,68.0,56.0,65.0,58.6,52.0,91,73,53,29.90,29.80,10,3,15,0.00
2013-4-16,79.9,71.4,65.5,72.0,66.9,61.0,95,86,75,30.02,29.87,9,2,16,0.00
2013-4-17,84.4,73.5,63.6,72.0,67.5,63.0,99,82,59,30.04,29.81,8,2,18,0.02
2013-4-18,80.9,73.0,50.4,68.0,64.9,49.0,96,77,60,29.82,29.55,13,6,29,1.41
2013-4-19,48.6,43.5,37.4,47.0,36.9,34.0,96,78,59,30.08,29.65,9,3,19,0.09
2013-4-20,60.1,47.5,32.3,45.0,36.5,32.0,98,69,40,30.29,30.08,11,2,13,0.00
2013-4-21,64.4,52.6,40.9,42.0,36.9,32.0,82,57,32,30.37,30.21,11,2,14,0.00
2013-4-22,73.4,58.2,41.0,54.0,46.1,38.0,90,66,42,30.22,30.01,9,2,16,0.00
2013-4-23,73.1,63.1,51.4,62.0,55.5,47.0,88,77,61,30.05,29.84,19,3,20,0.00
2013-4-24,66.9,46.9,35.1,60.0,42.9,34.0,96,87,65,30.26,29.80,15,3,16,0.88
2013-4-25,64.2,47.8,31.3,45.0,39.4,31.0,98,76,43,30.36,30.25,9,2,12,0.01
2013-4-26,53.1,48.9,41.3,50.0,46.7,40.0,97,92,76,30.41,30.21,8,1,11,0.46
2013-4-27,59.3,55.0,49.9,59.0,54.6,49.0,99,98,94,30.28,29.86,9,2,12,1.40
2013-4-28,61.0,56.9,47.7,60.0,54.9,47.0,99,93,82,29.92,29.84,7,1,11,0.00
2013-4-29,74.2,58.8,43.9,61.0,53.3,44.0,100,84,57,29.99,29.84,6,1,9,0.00
2013-4-30,80.7,65.2,48.9,64.0,56.3,49.0,99,76,44,29.95,29.87,6,1,9,0.00
2013-5-1,80.4,67.2,53.6,69.0,60.2,53.0,97,80,58,30.04,29.94,6,1,11,0.00
2013-5-2,74.2,65.9,56.5,64.0,60.2,55.0,97,82,61,30.10,29.97,6,1,10,0.00
2013-5-3,73.3,60.2,42.3,63.0,55.5,41.0,96,85,65,29.98,29.71,13,3,23,0.99
2013-5-4,55.6,46.1,40.2,45.0,41.8,39.0,97,86,59,29.94,29.84,6,2,11,0.41
2013-5-5,61.9,51.6,41.6,52.0,48.0,41.0,98,88,69,29.91,29.80,7,2,10,0.00
2013-5-6,63.3,56.2,52.5,59.0,54.5,51.0,98,94,83,29.89,29.77,10,3,14,0.18
2013-5-7,70.5,60.3,53.3,63.0,57.1,53.0,100,90,66,29.97,29.88,8,1,11,0.00
2013-5-8,79.3,65.9,53.0,63.0,58.3,53.0,99,79,49,30.01,29.92,9,1,12,0.00
2013-5-9,79.4,69.9,57.5,66.0,61.5,57.0,98,76,59,30.01,29.88,10,2,16,0.00
2013-5-10,73.8,66.5,62.5,69.0,63.9,60.0,100,91,77,29.91,29.79,7,1,14,0.90
2013-5-11,69.9,60.9,54.6,60.0,54.3,41.0,96,80,54,30.06,29.90,8,3,14,0.11
2013-5-12,62.6,52.1,39.9,44.0,39.4,33.0,97,66,37,30.18,30.07,8,2,14,0.00
2013-5-13,69.7,54.8,38.1,49.0,42.2,36.0,98,68,35,30.23,30.10,6,1,10,0.00
2013-5-14,84.3,69.5,49.8,67.0,56.6,47.0,90,66,46,30.10,29.90,12,4,20,0.00
2013-5-15,82.9,72.7,62.9,63.0,58.0,52.0,84,62,39,30.01,29.88,9,2,22,0.00
2013-5-16,78.2,70.8,63.1,70.0,62.4,59.0,89,75,64,29.95,29.86,7,1,10,0.00
2013-5-17,71.7,66.3,62.7,69.0,64.8,60.0,99,95,86,29.95,29.86,7,0,10,0.21
2013-5-18,81.1,71.3,65.3,73.0,67.9,65.0,100,90,67,29.96,29.87,5,1,8,0.00
2013-5-19,86.2,77.4,68.5,76.0,71.6,67.0,100,83,62,29.90,29.81,9,2,14,0.00
2013-5-20,85.8,77.5,68.3,75.0,71.1,67.0,97,81,65,29.91,29.77,10,3,16,0.00
2013-5-21,77.3,69.0,64.8,72.0,66.7,63.0,99,93,76,29.91,29.75,8,2,23,1.58
2013-5-22,76.9,68.5,62.3,68.0,64.5,61.0,99,87,64,29.81,29.70,9,2,15,0.16
2013-5-23,74.2,66.9,57.5,63.0,59.6,52.0,98,78,63,30.09,29.81,13,4,18,0.00
2013-5-24,68.9,58.6,48.7,53.0,49.9,46.0,95,75,46,30.30,30.09,8,3,16,0.00
2013-5-25,75.2,61.0,46.0,58.0,52.5,46.0,99,76,44,30.30,30.11,6,1,8,0.00
2013-5-26,81.4,68.2,55.3,67.0,59.8,53.0,97,77,47,30.16,30.04,6,1,11,0.00
2013-5-27,82.7,71.2,56.1,68.0,62.2,55.0,97,75,55,30.06,29.89,12,3,24,0.00
2013-5-28,84.8,76.6,69.0,71.0,65.0,59.0,86,69,48,29.99,29.89,11,4,21,0.00
2013-5-29,85.0,74.9,60.4,72.0,65.8,58.0,92,74,55,30.03,29.89,10,2,15,0.00
2013-5-30,85.1,76.6,67.7,75.0,70.2,66.0,99,81,63,30.00,29.87,23,3,35,0.63
2013-5-31,70.0,69.6,69.0,70.0,69.3,69.0,99,99,98,29.93,29.89,2,0,6,0.00
2013-6-1,69.8,67.6,66.2,68.0,66.8,66.0,99,97,93,29.89,29.79,4,1,8,0.00
2013-6-2,77.4,69.6,63.3,68.0,64.7,61.0,99,85,61,29.92,29.85,7,2,12,0.00
2013-6-3,75.0,66.0,58.3,65.0,60.2,58.0,98,83,61,30.00,29.90,8,3,12,0.00
2013-6-4,78.8,67.7,53.8,66.0,60.5,53.0,97,79,57,30.01,29.91,6,1,10,0.00
2013-6-5,84.0,74.1,62.5,73.0,67.8,62.0,98,82,59,29.92,29.75,7,1,8,0.00
2013-6-6,79.9,71.8,66.2,71.0,68.1,65.0,99,89,67,29.76,29.70,7,1,26,0.13
2013-6-7,78.6,69.9,62.3,70.0,64.4,61.0,96,83,65,29.83,29.71,7,2,12,0.00
2013-6-8,80.0,69.1,58.1,66.0,61.5,58.0,99,79,49,29.94,29.82,6,1,11,0.00
2013-6-9,80.4,68.0,60.1,75.0,66.6,60.0,99,95,78,29.96,29.76,6,1,19,0.96
2013-6-10,82.7,72.0,64.9,74.0,67.1,64.0,99,86,58,29.87,29.78,8,2,15,0.04
2013-6-11,91.3,78.2,63.2,80.0,71.5,63.0,100,81,61,29.95,29.86,6,1,10,0.00
2013-6-12,91.0,83.0,72.9,79.0,75.3,71.0,95,78,63,29.96,29.79,16,2,16,0.00
2013-6-13,84.8,77.8,64.4,77.0,70.9,63.0,96,80,68,29.90,29.76,13,4,18,0.00
2013-6-14,81.9,71.0,58.1,65.0,61.2,57.0,97,73,51,30.01,29.89,10,3,16,0.00
2013-6-15,85.9,73.5,60.0,70.0,65.0,60.0,99,77,52,30.04,29.92,8,1,11,0.00
2013-6-16,87.8,76.7,67.6,76.0,70.1,66.0,96,81,61,29.98,29.88,7,1,14,0.00
2013-6-17,86.4,74.2,68.5,78.0,71.3,68.0,99,91,68,29.90,29.82,8,1,15,0.43
2013-6-18,82.2,72.9,66.1,74.0,68.3,65.0,98,86,65,29.91,29.78,9,3,16,0.03
2013-6-19,85.6,75.0,65.4,73.0,68.1,65.0,98,80,54,30.00,29.89,7,2,10,0.04
2013-6-20,87.1,75.9,65.6,75.0,70.0,65.0,99,83,56,30.08,30.00,8,1,13,0.00
2013-6-21,88.0,77.7,67.9,76.0,71.1,67.0,99,82,57,30.12,30.02,9,2,12,0.00
2013-6-22,86.8,77.7,67.9,77.0,70.8,67.0,99,81,58,30.10,29.99,6,1,10,0.00
2013-6-23,86.7,76.7,66.4,74.0,69.4,66.0,99,80,57,30.06,29.95,8,1,11,0.00
2013-6-24,87.3,75.8,70.5,77.0,68.7,-99.9,98,84,65,30.08,29.97,9,-12,12,0.00
2013-6-25,89.1,81.1,73.1,79.0,74.8,72.0,97,82,65,30.00,29.85,8,2,14,0.00
2013-6-26,89.4,81.2,73.6,78.0,73.3,70.0,95,78,63,29.90,29.70,12,3,20,1.03
2013-6-27,91.7,84.8,71.5,80.0,74.8,70.0,97,74,50,29.83,29.73,11,2,13,0.01
2013-6-28,88.2,77.6,67.7,78.0,70.8,65.0,98,81,53,29.78,29.61,7,1,13,0.00
2013-6-29,84.1,73.6,62.9,70.0,65.2,62.0,98,77,56,29.67,29.56,11,1,21,0.20
2013-6-30,76.9,67.8,60.6,69.0,64.8,60.0,99,90,73,29.76,29.63,12,2,14,0.17
2013-7-1,73.7,68.0,65.1,68.0,65.9,64.0,98,93,80,29.83,29.73,8,2,16,0.08
2013-7-2,76.3,68.3,61.2,68.0,65.4,60.0,99,91,75,29.98,29.81,7,1,12,0.01
2013-7-3,79.5,67.6,58.5,69.0,63.6,58.0,100,88,62,30.05,29.97,6,1,7,0.00
2013-7-4,79.1,70.9,62.7,74.0,68.1,63.0,100,91,75,30.03,29.95,8,2,13,0.00
2013-7-5,81.0,72.9,67.0,73.0,69.3,66.0,98,89,73,30.03,29.95,4,0,8,0.01
2013-7-6,84.6,73.0,66.4,77.0,70.0,66.0,99,91,69,30.04,29.91,8,1,23,1.84
2013-7-7,86.7,74.9,64.3,76.0,70.5,64.0,99,87,62,30.04,29.96,7,1,10,0.00
2013-7-8,87.9,76.9,67.6,78.0,72.8,68.0,100,88,65,30.09,29.99,6,1,9,0.00
2013-7-9,90.4,80.6,70.3,80.0,75.0,70.0,100,84,64,30.06,29.92,8,1,11,0.00
2013-7-10,90.1,81.4,73.1,81.0,75.6,72.0,97,83,64,29.96,29.80,8,2,11,0.00
2013-7-11,86.7,76.5,64.1,77.0,70.2,62.0,100,82,59,29.94,29.87,11,3,18,0.00
2013-7-12,82.5,71.4,61.6,68.0,62.6,60.0,96,76,49,30.00,29.92,13,3,16,0.00
2013-7-13,83.3,71.7,59.1,68.0,63.1,59.0,99,77,49,29.99,29.92,8,2,13,0.00
2013-7-14,86.2,75.3,66.8,77.0,71.4,65.0,99,88,69,30.07,29.96,6,1,13,0.21
2013-7-15,87.7,77.9,70.3,78.0,74.0,70.0,99,89,69,30.17,30.06,6,1,12,0.05
2013-7-16,91.3,79.5,69.2,77.0,73.1,69.0,100,83,57,30.24,30.16,8,1,12,0.00
2013-7-17,92.6,81.9,70.9,78.0,74.6,71.0,100,80,55,30.25,30.11,7,2,11,0.00
2013-7-18,90.0,78.5,71.1,79.0,74.9,71.0,99,89,66,30.14,29.99,10,1,11,0.05
2013-7-19,88.8,78.2,67.0,78.0,73.3,67.0,100,86,65,30.01,29.87,5,1,10,0.01
2013-7-20,89.1,79.0,70.7,78.0,73.5,69.0,99,85,64,29.91,29.77,13,2,16,0.09
2013-7-21,88.8,76.0,70.3,79.0,73.0,70.0,99,91,66,29.90,29.79,6,1,15,0.27
2013-7-22,82.8,75.2,69.5,77.0,73.5,69.0,99,94,79,29.85,29.76,7,2,13,1.55
2013-7-23,86.6,78.1,69.9,76.0,73.3,67.0,99,86,60,29.86,29.73,13,2,24,0.00
2013-7-24,83.2,73.1,63.4,74.0,67.9,63.0,98,85,63,29.93,29.76,9,2,14,0.01
2013-7-25,80.4,69.1,60.0,67.0,62.6,59.0,98,82,54,30.02,29.91,8,2,14,0.00
2013-7-26,81.7,71.0,57.9,69.0,64.3,58.0,100,81,54,30.02,29.90,7,1,10,0.02
2013-7-27,82.9,73.1,63.4,72.0,67.9,61.0,99,84,68,29.96,29.81,8,1,12,0.00
2013-7-28,76.3,66.6,54.4,65.0,58.5,53.0,98,77,46,30.03,29.92,7,1,10,0.00
2013-7-29,78.1,67.8,58.8,68.0,63.4,58.0,99,87,64,30.12,30.02,5,0,9,0.00
2013-7-30,72.2,68.4,63.4,72.0,68.0,63.0,100,98,94,30.11,29.98,3,0,7,0.25
2013-7-31,85.0,75.6,69.2,79.0,73.4,69.0,100,93,77,29.99,29.86,5,1,10,0.02
2013-8-1,83.7,74.0,65.8,72.0,69.4,65.0,100,87,63,30.00,29.92,8,2,11,0.00
2013-8-2,84.3,73.0,61.4,72.0,67.5,61.0,100,84,57,29.98,29.90,5,1,9,0.00
2013-8-3,82.9,73.2,67.4,77.0,71.4,67.0,99,94,82,30.01,29.88,9,1,14,0.80
2013-8-4,80.9,74.0,67.3,73.0,68.0,64.0,100,83,63,30.07,29.98,8,2,11,0.01
2013-8-5,74.9,69.5,65.9,69.0,66.4,63.0,98,90,73,30.05,29.87,5,0,7,0.22
2013-8-6,82.2,75.0,69.4,78.0,73.6,69.0,100,95,86,29.91,29.83,8,0,9,0.04
2013-8-7,85.0,76.0,71.0,79.0,74.6,71.0,100,96,76,29.91,29.81,5,0,10,0.21
2013-8-8,82.6,75.1,70.1,79.0,74.1,70.0,100,97,88,29.90,29.83,4,0,18,0.34
2013-8-9,87.4,77.6,72.0,81.0,75.1,72.0,100,92,77,29.98,29.86,5,1,10,0.44
2013-8-10,81.1,74.7,71.0,76.0,73.5,71.0,100,96,81,30.05,29.95,5,1,6,0.73
2013-8-11,84.7,77.6,71.3,79.0,75.2,71.0,100,92,74,30.06,29.97,5,0,9,0.01
2013-8-12,81.7,74.5,71.1,80.0,74.0,71.0,100,98,87,30.01,29.83,7,1,15,0.36
2013-8-13,82.2,74.8,68.3,75.0,71.0,65.0,100,88,67,29.96,29.86,12,2,13,0.33
2013-8-14,73.9,65.6,57.0,64.0,57.8,55.0,96,77,56,30.07,29.96,11,4,15,0.00
2013-8-15,76.6,65.7,54.8,62.0,58.4,54.0,97,79,56,30.05,29.96,10,2,12,0.00
2013-8-16,75.6,68.6,61.4,69.0,64.4,59.0,94,86,76,30.03,29.96,6,2,9,0.01
2013-8-17,76.8,69.8,65.9,72.0,67.7,64.0,99,93,78,30.06,29.98,8,2,12,0.33
2013-8-18,76.0,69.5,64.4,72.0,68.1,64.0,100,95,81,30.09,30.00,7,1,8,0.66
2013-8-19,82.8,71.1,62.2,75.0,68.5,62.0,100,92,67,30.07,29.96,6,1,8,0.01
2013-8-20,86.0,74.8,64.9,77.0,71.4,65.0,100,90,68,30.05,29.96,5,0,8,0.00
2013-8-21,87.1,76.2,67.7,78.0,72.7,68.0,100,90,65,30.08,29.99,5,0,8,0.00
2013-8-22,88.2,77.7,68.3,78.0,73.3,68.0,100,87,63,30.07,29.95,6,1,9,0.00
2013-8-23,89.1,77.2,69.5,78.0,73.3,70.0,100,89,63,30.02,29.93,7,1,15,0.00
2013-8-24,86.9,77.0,67.0,76.0,71.5,67.0,100,84,64,30.13,30.02,8,1,10,0.00
2013-8-25,86.1,75.8,66.6,78.0,72.1,66.0,99,89,69,30.22,30.12,9,1,11,0.00
2013-8-26,86.2,75.7,67.1,77.0,72.1,67.0,100,89,69,30.21,30.06,6,1,10,0.00
2013-8-27,86.1,75.5,65.8,78.0,71.8,66.0,99,89,70,30.08,29.97,6,1,10,0.00
2013-8-28,89.4,77.5,68.0,78.0,72.5,68.0,100,86,58,30.01,29.93,5,1,9,0.00
2013-8-29,91.8,79.8,70.0,80.0,74.7,70.0,99,86,59,29.98,29.89,5,1,9,0.00
2013-8-30,91.6,80.8,70.7,79.0,75.1,71.0,100,85,57,29.93,29.82,7,1,9,0.00
2013-8-31,91.5,81.5,72.5,79.0,75.9,72.0,100,84,63,29.84,29.72,10,1,12,0.00
2013-9-1,79.4,74.1,67.9,76.0,72.0,67.0,99,93,83,29.85,29.73,12,2,24,0.81
2013-9-2,87.9,75.9,67.7,78.0,72.5,67.0,100,90,68,29.86,29.76,8,1,12,0.00
2013-9-3,82.7,71.8,62.7,71.0,66.1,63.0,99,84,56,30.00,29.86,7,2,11,0.00
2013-9-4,80.9,69.3,59.5,69.0,63.6,59.0,99,84,59,30.10,29.99,6,1,10,0.00
2013-9-5,81.6,69.3,57.7,70.0,64.6,58.0,100,86,62,30.13,30.06,10,1,10,0.00
2013-9-6,84.5,72.7,62.2,73.0,67.6,62.0,100,86,58,30.11,30.00,7,1,9,0.00
2013-9-7,86.8,73.8,61.7,75.0,69.0,62.0,100,87,62,30.03,29.90,6,1,10,0.00
2013-9-8,89.0,77.1,65.9,78.0,72.3,66.0,100,87,58,29.93,29.84,5,0,7,0.00
2013-9-9,89.8,79.2,72.8,79.0,74.5,69.0,99,86,64,29.96,29.87,7,1,10,0.00
2013-9-10,88.2,78.4,71.6,80.0,74.6,71.0,100,89,70,30.08,29.96,5,1,8,0.00
2013-9-11,88.7,76.4,68.7,80.0,73.1,68.0,100,90,69,30.10,30.00,9,1,16,0.21
2013-9-12,85.9,75.7,66.7,78.0,73.1,66.0,100,92,73,30.00,29.86,6,1,10,0.02
2013-9-13,74.9,65.9,56.0,66.0,59.0,54.0,99,79,56,29.99,29.91,11,3,16,0.00
2013-9-14,71.6,59.9,49.4,57.0,53.0,48.0,98,80,56,30.07,29.98,8,2,18,0.00
2013-9-15,78.9,63.2,49.5,64.0,57.2,49.0,100,83,50,30.05,30.00,9,1,9,0.00
2013-9-16,75.0,66.9,58.2,68.0,63.9,58.0,99,90,77,30.13,30.03,7,2,10,0.00
2013-9-17,80.5,69.6,62.8,70.0,65.8,62.0,98,88,64,30.14,30.01,6,1,9,0.00
2013-9-18,82.4,72.5,64.2,75.0,69.8,64.0,99,91,76,30.07,29.97,9,1,11,0.00
2013-9-19,84.5,74.9,66.9,77.0,71.2,67.0,100,89,72,30.04,29.90,8,2,13,0.00
2013-9-20,80.3,72.4,67.3,74.0,69.7,67.0,99,91,79,29.93,29.75,8,2,14,1.36
2013-9-21,72.0,63.6,53.2,67.0,57.9,52.0,99,83,54,29.85,29.73,12,4,19,0.04
2013-9-22,73.0,61.2,50.9,59.0,54.6,50.0,99,81,54,29.92,29.84,9,2,13,0.00
2013-9-23,76.1,61.9,48.9,63.0,56.6,48.0,99,85,58,29.96,29.87,7,1,12,0.00
2013-9-24,80.7,66.0,55.0,72.0,63.5,55.0,100,92,68,29.91,29.75,8,1,12,0.13
2013-9-25,79.1,68.4,60.4,72.0,65.9,60.0,100,93,71,29.82,29.74,6,1,11,0.00
2013-9-26,80.6,68.2,58.9,71.0,64.3,59.0,100,89,62,29.97,29.81,7,1,11,0.00
2013-9-27,79.3,66.2,53.6,66.0,60.4,53.0,100,84,52,30.06,29.97,5,1,9,0.00
2013-9-28,78.9,67.2,59.7,66.0,61.4,59.0,100,83,54,30.09,29.98,12,2,14,0.00
2013-9-29,65.6,63.3,61.3,63.0,61.6,60.0,100,94,84,30.01,29.93,9,1,10,1.15
2013-9-30,69.1,65.7,63.1,66.0,64.5,63.0,100,96,88,29.96,29.89,6,1,12,0.01
2013-10-1,74.6,68.8,63.0,72.0,67.8,62.0,99,96,87,30.02,29.93,5,0,9,0.14
2013-10-2,79.6,71.5,67.0,75.0,69.7,67.0,100,95,78,30.04,29.97,5,1,9,0.14
2013-10-3,81.8,72.9,67.4,72.0,68.6,66.0,100,87,62,30.01,29.90,9,1,13,0.01
2013-10-4,83.9,73.5,65.4,76.0,70.2,65.0,99,90,72,30.01,29.91,9,1,13,0.00
2013-10-5,83.1,74.5,67.8,75.0,71.8,68.0,100,92,70,29.98,29.79,11,2,12,0.12
2013-10-6,70.5,60.2,48.7,68.0,55.8,47.0,99,86,61,29.92,29.76,8,2,18,0.44
2013-10-7,65.7,53.8,44.6,54.0,49.2,44.0,99,86,61,30.09,29.88,10,2,13,0.00
2013-10-8,69.2,57.4,46.6,52.0,49.8,46.0,98,78,48,30.14,30.05,13,3,18,0.00
2013-10-9,77.2,61.8,49.7,68.0,58.5,49.0,99,90,68,30.11,30.03,7,0,10,0.00
2013-10-10,76.6,65.0,57.3,68.0,62.0,57.0,100,91,66,30.10,29.96,4,0,9,0.00
2013-10-11,79.0,64.4,54.5,67.0,60.0,55.0,100,88,55,30.02,29.92,6,1,8,0.00
2013-10-12,74.9,64.0,54.7,69.0,62.1,55.0,100,94,77,30.08,29.95,4,0,7,0.00
2013-10-13,75.5,65.7,56.5,65.0,60.2,50.0,100,83,64,30.22,30.09,10,3,14,0.00
2013-10-14,75.4,63.6,52.0,65.0,57.0,48.0,93,79,63,30.21,30.04,6,2,9,0.00
2013-10-15,70.4,65.7,61.3,67.0,64.2,61.0,99,95,84,30.04,29.88,7,1,13,0.10
2013-10-16,65.6,58.9,53.3,65.0,57.6,53.0,99,95,85,29.96,29.88,7,2,14,0.11
2013-10-17,62.8,53.6,44.6,54.0,50.6,44.0,99,90,66,29.96,29.88,7,1,12,0.03
2013-10-18,67.2,53.1,41.1,55.0,48.8,41.0,100,87,55,30.03,29.90,5,1,10,0.00
2013-10-19,55.7,48.8,38.5,53.0,46.4,38.0,100,91,70,30.02,29.84,11,2,16,0.06
2013-10-20,62.7,47.6,36.6,48.0,42.5,36.0,99,85,53,30.07,29.96,9,1,13,0.01
2013-10-21,67.3,48.3,37.9,53.0,44.0,38.0,99,87,60,30.01,29.93,8,1,16,0.00
2013-10-23,52.4,46.1,40.0,43.0,39.7,37.0,95,80,57,30.08,30.04,7,1,12,0.00
2013-10-24,51.0,43.2,31.6,44.0,37.8,30.0,96,82,52,30.35,30.07,8,2,13,0.00
2013-10-25,50.3,36.5,28.0,34.0,30.1,27.0,97,81,43,30.49,30.28,8,1,12,0.00
2013-10-26,58.8,43.8,29.3,48.0,37.6,29.0,98,81,58,30.28,30.03,10,2,15,0.00
2013-10-27,63.1,52.4,43.1,54.0,48.4,42.0,98,86,66,30.07,29.99,4,1,12,0.00
2013-10-28,68.1,57.5,48.8,58.0,54.4,48.0,99,90,67,30.19,30.01,5,0,7,0.00
2013-10-29,66.6,56.9,46.2,64.0,55.8,46.0,100,96,87,30.22,30.06,5,0,11,0.00
2013-10-30,75.7,68.7,63.6,67.0,63.7,61.0,93,84,74,30.10,29.94,12,3,16,0.00
2013-10-31,69.3,65.4,57.3,67.0,63.1,57.0,98,92,79,29.92,29.45,19,6,29,0.48
2013-11-1,68.7,56.7,47.9,57.0,50.7,46.0,99,83,46,29.80,29.62,8,2,18,0.01
2013-11-2,60.5,47.3,37.9,48.0,43.1,37.0,99,86,63,30.15,29.80,7,2,13,0.00
2013-11-3,58.1,43.3,32.4,45.0,37.1,32.0,99,81,47,30.28,30.14,8,1,10,0.00
2013-11-4,61.4,50.2,38.6,50.0,44.1,38.0,96,81,55,30.28,30.18,9,1,18,0.00
2013-11-5,67.0,56.4,47.8,51.0,47.2,44.0,94,72,52,30.29,30.11,6,1,11,0.00
2013-11-6,60.9,55.6,43.0,59.0,51.3,41.0,99,86,69,30.16,29.98,10,3,23,0.54
2013-11-7,52.9,41.6,32.9,41.0,35.0,31.0,97,80,45,30.34,30.17,9,3,12,0.01
2013-11-8,57.6,41.9,29.6,44.0,35.4,29.0,99,81,41,30.37,30.18,7,1,8,0.00
2013-11-9,62.3,46.6,33.7,43.0,38.2,33.0,97,76,45,30.22,30.11,12,2,22,0.00
2013-11-10,60.7,46.3,33.9,46.0,36.8,31.0,98,74,36,30.34,30.19,10,2,13,0.00
2013-11-11,67.0,48.6,30.7,46.0,36.8,30.0,97,69,28,30.27,30.12,15,1,25,0.00
2013-11-12,49.0,35.8,27.4,43.0,28.8,22.0,95,77,51,30.64,30.22,18,8,24,0.02
2013-11-13,44.3,30.6,20.9,29.0,23.3,19.0,94,77,38,30.69,30.40,5,1,7,0.00
2013-11-14,56.1,36.6,22.7,27.0,23.8,21.0,95,66,27,30.40,30.14,10,2,16,0.00
2013-11-15,52.8,46.3,33.3,51.0,39.8,26.0,97,79,57,30.14,30.01,5,1,11,0.00
2013-11-16,65.4,58.9,52.9,63.0,56.8,51.0,95,93,88,30.01,29.79,13,5,20,0.00
2013-11-17,72.7,64.4,51.6,69.0,61.2,40.0,98,89,60,29.89,29.56,14,5,29,1.44
2013-11-18,60.7,48.1,33.9,45.0,36.9,30.0,90,67,38,30.23,29.90,10,2,15,0.00
2013-11-19,49.8,41.0,34.3,33.0,31.1,29.0,89,69,49,30.28,30.15,8,3,15,0.00
2013-11-20,60.2,44.4,28.7,39.0,34.5,27.0,93,71,44,30.18,30.07,11,2,21,0.00
2013-11-21,64.8,55.2,47.7,57.0,49.5,39.0,98,82,68,30.19,30.11,10,3,15,0.18
2013-11-22,58.7,50.4,41.8,57.0,49.1,39.0,99,95,89,30.36,30.12,14,6,19,0.54
2013-11-23,44.1,36.4,24.2,39.0,26.8,16.0,93,70,37,30.59,30.34,15,8,24,0.00
2013-11-24,32.7,26.2,17.9,19.0,16.1,14.0,85,67,50,30.67,30.44,12,4,21,0.00
2013-11-25,41.5,33.2,29.1,33.0,25.3,18.0,96,74,49,30.43,30.14,9,1,14,0.01
2013-11-26,37.3,35.1,32.0,35.0,32.7,23.0,97,91,70,30.14,29.92,15,5,26,0.10
2013-11-27,31.6,24.0,16.1,23.0,14.6,11.0,91,69,46,30.36,30.06,14,5,21,0.00
2013-11-28,43.2,27.6,15.4,24.0,19.2,14.0,93,74,43,30.46,30.31,12,2,14,0.00
2013-11-29,50.8,33.6,21.1,35.0,26.8,20.0,95,78,46,30.56,30.41,6,1,8,0.00
2013-11-30,57.4,41.6,25.4,34.0,28.0,24.0,95,63,31,30.40,30.17,10,2,18,0.00
2013-12-1,54.1,49.5,46.1,42.0,37.4,31.0,85,64,52,30.17,29.88,7,1,12,0.00
2013-12-2,59.3,50.3,42.4,51.0,45.9,39.0,96,85,73,29.88,29.67,7,1,10,0.00
2013-12-3,63.2,54.0,47.9,55.0,51.3,47.0,100,91,70,29.73,29.64,7,1,11,0.00
2013-12-4,73.9,65.6,54.5,63.0,60.8,54.0,99,85,66,29.75,29.61,12,4,20,0.00
2013-12-5,67.9,45.0,31.5,65.0,42.7,30.0,98,91,81,30.13,29.74,12,6,18,0.14
2013-12-6,31.6,27.4,23.3,30.0,26.3,22.0,97,95,94,30.42,30.07,10,0,14,0.03
2013-12-7,26.4,22.3,18.3,23.0,19.9,16.0,94,90,83,30.59,30.36,9,3,16,0.00
2013-12-8,33.1,30.6,23.3,33.0,29.8,22.0,98,97,93,30.34,30.00,8,1,10,0.08
2013-12-9,31.8,29.5,26.3,31.0,27.3,22.0,98,92,82,30.26,30.09,7,2,13,0.02
2013-12-10,35.7,27.0,22.0,29.0,23.3,20.0,96,86,72,30.38,30.19,10,2,13,0.08
2013-12-11,40.9,27.9,17.6,35.0,24.1,16.0,96,86,69,30.58,30.35,8,3,15,0.16
2013-12-12,34.8,23.3,12.7,21.0,16.5,11.0,93,77,46,30.60,30.36,6,1,10,0.02
2013-12-13,41.6,31.6,18.3,35.0,25.4,17.0,100,79,55,30.36,29.93,6,1,9,0.19
2013-12-14,42.2,37.5,33.2,42.0,36.2,31.0,99,95,91,30.05,29.76,11,3,15,0.32
2013-12-15,33.4,31.4,29.9,31.0,28.6,27.0,93,89,85,30.21,30.05,10,4,15,0.00
2013-12-16,54.5,41.7,31.6,41.0,35.5,29.0,92,79,58,30.13,30.02,13,4,18,0.00
2013-12-17,48.0,37.7,25.2,39.0,32.9,24.0,97,83,56,30.26,30.05,14,2,14,0.00
2013-12-18,52.4,38.0,20.6,34.0,26.4,19.0,96,68,34,30.32,30.07,8,2,18,0.00
2013-12-19,60.7,52.7,43.3,51.0,44.0,34.0,83,73,60,30.10,29.90,16,5,23,0.00
2013-12-20,64.2,60.7,56.8,62.0,57.2,50.0,97,88,75,29.91,29.78,13,6,20,0.24
2013-12-21,72.0,64.8,52.8,66.0,62.3,52.0,99,92,78,29.79,29.39,14,6,31,2.52
2013-12-22,52.3,45.1,35.3,51.0,43.9,33.0,99,95,87,30.16,29.58,10,4,15,0.02
2013-12-23,35.1,31.5,26.3,33.0,27.4,23.0,92,84,74,30.46,30.16,8,4,13,0.00
2013-12-24,27.6,22.9,16.7,23.0,16.1,12.0,87,76,56,30.60,30.41,9,3,16,0.00
2013-12-25,43.6,31.1,18.0,30.0,22.9,15.0,92,73,50,30.41,30.26,10,2,12,0.00
2013-12-26,43.5,31.5,22.4,32.0,27.1,21.0,97,85,55,30.41,30.28,5,1,11,0.00
2013-12-27,52.0,34.0,21.6,36.0,28.1,20.0,96,81,51,30.44,30.31,8,1,9,0.00
2013-12-28,46.1,36.4,25.0,38.0,31.7,24.0,97,84,62,30.32,29.95,4,0,7,0.06
2013-12-29,51.6,40.0,29.0,45.0,37.2,26.0,99,90,75,30.16,29.90,12,4,20,0.14
2013-12-30,29.8,25.9,19.7,26.0,22.0,18.0,95,85,75,30.30,30.16,11,3,12,0.00
2013-12-31,42.4,29.9,19.6,30.0,24.3,18.0,94,80,58,30.43,30.27,6,1,9,0.00
2014-1-1,49.5,37.1,22.7,40.0,30.3,21.0,96,78,50,30.27,29.91,10,2,12,0.10
2014-1-2,40.4,27.7,17.2,40.0,24.0,13.0,98,86,73,30.41,29.85,18,6,23,0.05